Time;durP1;ratioP1;P1;durP2;ratioP2;P2;SDS_P1;SDS_P2;PMS_P1;PMS_P2;Temp;Humidity;BMP_temperature;BMP_pressure;BME280_temperature;BME280_humidity;BME280_pressure;Samples;Min_cycle;Max_cycle;Signal;HPM_P1;HPM_P2
2021/12/11 00:00:25;;;;;;;;;;;2.10;99.90;;;;;;4987807;28;20067;-72
2021/12/11 00:02:56;;;;;;;;;;;2.10;99.90;;;;;;4988102;28;20060;-70
2021/12/11 00:05:24;;;;;;;;;;;2.00;99.90;;;;;;4988054;28;20052;-69
2021/12/11 00:07:51;;;;;;;;;;;2.10;99.90;;;;;;4987854;28;20170;-69
2021/12/11 00:10:19;;;;;;;;;;;2.10;99.90;;;;;;4987356;28;20060;-71
2021/12/11 00:12:50;;;;;;;;;;;2.10;99.90;;;;;;4987462;28;20102;-72
2021/12/11 00:15:19;;;;;;;;;;;2.10;99.90;;;;;;4985717;28;20264;-70
2021/12/11 00:17:46;;;;;;;;;;;2.00;99.90;;;;;;4987831;28;20052;-70
2021/12/11 00:20:16;;;;;;;;;;;2.00;99.90;;;;;;4987110;28;20085;-71
2021/12/11 00:22:44;;;;;;;;;;;2.00;99.90;;;;;;4988889;28;20153;-71
2021/12/11 00:25:12;;;;;;;;;;;2.00;99.90;;;;;;5003899;28;20107;-72
2021/12/11 00:27:42;;;;;;;;;;;1.90;99.90;;;;;;4986802;28;20305;-69
2021/12/11 00:30:12;;;;;;;;;;;2.00;99.90;;;;;;4987623;28;20170;-71
2021/12/11 00:32:40;;;;;;;;;;;2.00;99.90;;;;;;4987380;28;20065;-71
2021/12/11 00:35:09;;;;;;;;;;;2.00;99.90;;;;;;4987274;28;20060;-71
2021/12/11 00:37:36;;;;;;;;;;;2.00;99.90;;;;;;4987204;28;20068;-71
2021/12/11 00:40:06;;;;;;;;;;;2.00;99.90;;;;;;4986652;28;20065;-68
2021/12/11 00:42:34;;;;;;;;;;;2.00;99.90;;;;;;4987626;28;20051;-71
2021/12/11 00:45:02;;;;;;;;;;;2.00;99.90;;;;;;4987765;28;20060;-71
2021/12/11 00:47:33;;;;;;;;;;;2.00;99.90;;;;;;4987086;28;21399;-71
2021/12/11 00:50:03;;;;;;;;;;;2.00;99.90;;;;;;4988055;28;20051;-72
2021/12/11 00:52:32;;;;;;;;;;;2.10;99.90;;;;;;4986553;28;20060;-71
2021/12/11 00:54:59;;;;;;;;;;;2.10;99.90;;;;;;4986853;28;20059;-72
2021/12/11 00:57:26;;;;;;;;;;;2.10;99.90;;;;;;4986712;28;21027;-70
2021/12/11 01:00:00;;;;;;;;;;;2.10;99.90;;;;;;4987793;28;21129;-72
2021/12/11 01:02:27;;;;;;;;;;;2.10;99.90;;;;;;4987531;28;20076;-70
2021/12/11 01:04:56;;;;;;;;;;;2.20;99.90;;;;;;4987389;28;20068;-72
2021/12/11 01:07:29;;;;;;;;;;;2.20;99.90;;;;;;4986693;28;20102;-72
2021/12/11 01:09:58;;;;;;;;;;;2.20;99.90;;;;;;4986720;28;20963;-72
2021/12/11 01:12:30;;;;;;;;;;;2.20;99.90;;;;;;4985460;28;20069;-71
2021/12/11 01:15:00;;;;;;;;;;;2.20;99.90;;;;;;4985596;28;21128;-72
2021/12/11 01:17:35;;;;;;;;;;;2.20;99.90;;;;;;4984620;28;20211;-72
2021/12/11 01:20:07;;;;;;;;;;;2.20;99.90;;;;;;4985778;28;20067;-73
2021/12/11 01:22:36;;;;;;;;;;;2.20;99.90;;;;;;4986821;28;20078;-73
2021/12/11 01:25:06;;;;;;;;;;;2.30;99.90;;;;;;4986884;28;20068;-72
2021/12/11 01:27:34;;;;;;;;;;;2.30;99.90;;;;;;4985964;28;20088;-72
2021/12/11 01:30:01;;;;;;;;;;;2.30;99.90;;;;;;4986959;28;20133;-72
2021/12/11 01:32:31;;;;;;;;;;;2.30;99.90;;;;;;4985808;28;20065;-72
2021/12/11 01:35:00;;;;;;;;;;;2.30;99.90;;;;;;4987413;28;20065;-72
2021/12/11 01:37:29;;;;;;;;;;;2.30;99.90;;;;;;4986414;28;21166;-72
2021/12/11 01:39:56;;;;;;;;;;;2.40;99.90;;;;;;4986862;28;20060;-72
2021/12/11 01:42:25;;;;;;;;;;;2.40;99.90;;;;;;4986231;28;20088;-73
2021/12/11 01:44:53;;;;;;;;;;;2.40;99.90;;;;;;4986150;28;20201;-72
2021/12/11 01:47:23;;;;;;;;;;;2.40;99.90;;;;;;4986116;28;20117;-73
2021/12/11 01:49:51;;;;;;;;;;;2.40;99.90;;;;;;4986292;28;20371;-72
2021/12/11 01:52:26;;;;;;;;;;;2.40;99.90;;;;;;4986656;28;20082;-72
2021/12/11 01:54:55;;;;;;;;;;;2.40;99.90;;;;;;4987180;28;20075;-72
2021/12/11 01:57:24;;;;;;;;;;;2.50;99.90;;;;;;4983763;28;20108;-72
2021/12/11 01:59:54;;;;;;;;;;;2.50;99.90;;;;;;4977438;28;20268;-73
2021/12/11 02:02:23;;;;;;;;;;;2.50;99.90;;;;;;4965711;28;20214;-73
2021/12/11 02:04:53;;;;;;;;;;;2.50;99.90;;;;;;4964541;28;20151;-73
2021/12/11 02:07:21;;;;;;;;;;;2.50;99.90;;;;;;4948164;28;20199;-73
2021/12/11 02:09:55;;;;;;;;;;;2.50;99.90;;;;;;4963175;28;20075;-73
2021/12/11 02:12:28;;;;;;;;;;;2.50;99.90;;;;;;4964920;28;20068;-72
2021/12/11 02:14:56;;;;;;;;;;;2.60;99.90;;;;;;4964941;28;20142;-73
2021/12/11 02:17:28;;;;;;;;;;;2.60;99.90;;;;;;4964367;28;20060;-73
2021/12/11 02:19:56;;;;;;;;;;;2.50;99.90;;;;;;4964048;28;20060;-72
2021/12/11 02:22:26;;;;;;;;;;;2.50;99.90;;;;;;4963194;28;20175;-73
2021/12/11 02:24:55;;;;;;;;;;;2.50;99.90;;;;;;4966588;28;20065;-73
2021/12/11 02:27:23;;;;;;;;;;;2.50;99.90;;;;;;4967672;28;21119;-72
2021/12/11 02:29:52;;;;;;;;;;;2.50;99.90;;;;;;4949326;28;21282;-73
2021/12/11 02:32:26;;;;;;;;;;;2.60;99.90;;;;;;4982332;28;20084;-73
2021/12/11 02:34:59;;;;;;;;;;;2.60;99.90;;;;;;4982420;28;20068;-72
2021/12/11 02:37:35;;;;;;;;;;;2.60;99.90;;;;;;4990452;28;20170;-73
2021/12/11 02:40:06;;;;;;;;;;;2.60;99.90;;;;;;4989976;28;20060;-72
2021/12/11 02:42:36;;;;;;;;;;;2.60;99.90;;;;;;4991170;28;20149;-72
2021/12/11 02:45:06;;;;;;;;;;;2.60;99.90;;;;;;4989410;28;20227;-72
2021/12/11 02:47:34;;;;;;;;;;;2.60;99.90;;;;;;4968781;28;20114;-72
2021/12/11 02:50:04;;;;;;;;;;;2.50;99.90;;;;;;4969792;28;20069;-72
2021/12/11 02:52:36;;;;;;;;;;;2.50;99.90;;;;;;4981782;28;20082;-73
2021/12/11 02:55:07;;;;;;;;;;;2.50;99.90;;;;;;4971977;28;20117;-73
2021/12/11 02:57:37;;;;;;;;;;;2.50;99.90;;;;;;4971981;28;20142;-73
2021/12/11 03:00:12;;;;;;;;;;;2.60;99.90;;;;;;4967409;28;20078;-70
2021/12/11 03:02:44;;;;;;;;;;;2.60;99.90;;;;;;4970061;28;21058;-73
2021/12/11 03:05:14;;;;;;;;;;;2.60;99.90;;;;;;4985524;28;20283;-73
2021/12/11 03:07:50;;;;;;;;;;;2.60;99.90;;;;;;4971750;28;20092;-71
2021/12/11 03:10:18;;;;;;;;;;;2.60;99.90;;;;;;4976369;28;20068;-70
2021/12/11 03:12:45;;;;;;;;;;;2.60;99.90;;;;;;4983216;28;20092;-71
2021/12/11 03:15:13;;;;;;;;;;;2.60;99.90;;;;;;4975300;28;20069;-70
2021/12/11 03:17:40;;;;;;;;;;;2.60;99.90;;;;;;4974316;28;20230;-73
2021/12/11 03:20:08;;;;;;;;;;;2.60;99.90;;;;;;4978352;28;20077;-72
2021/12/11 03:22:36;;;;;;;;;;;2.60;99.90;;;;;;4970985;28;20067;-73
2021/12/11 03:25:06;;;;;;;;;;;2.60;99.90;;;;;;4967740;28;20085;-73
2021/12/11 03:27:33;;;;;;;;;;;2.60;99.90;;;;;;4976026;28;20068;-73
2021/12/11 03:30:01;;;;;;;;;;;2.50;99.90;;;;;;4978663;28;20084;-73
2021/12/11 03:32:28;;;;;;;;;;;2.50;99.90;;;;;;4983771;28;20162;-72
2021/12/11 03:34:55;;;;;;;;;;;2.50;99.90;;;;;;4978269;28;20075;-73
2021/12/11 03:37:23;;;;;;;;;;;2.50;99.90;;;;;;4989346;28;21147;-73
2021/12/11 03:39:51;;;;;;;;;;;2.50;99.90;;;;;;4989370;28;20067;-72
2021/12/11 03:42:22;;;;;;;;;;;2.50;99.90;;;;;;4989644;28;21205;-73
2021/12/11 03:44:50;;;;;;;;;;;2.50;99.90;;;;;;4990113;28;20068;-72
2021/12/11 03:47:20;;;;;;;;;;;2.60;99.90;;;;;;4990559;28;20060;-73
2021/12/11 03:49:47;;;;;;;;;;;2.60;99.90;;;;;;4989900;28;20099;-70
2021/12/11 03:52:16;;;;;;;;;;;2.60;99.90;;;;;;4988704;28;20068;-72
2021/12/11 03:54:44;;;;;;;;;;;2.60;99.90;;;;;;4989559;28;20082;-72
2021/12/11 03:57:15;;;;;;;;;;;2.50;99.90;;;;;;4989337;28;21320;-73
2021/12/11 03:59:44;;;;;;;;;;;2.50;99.90;;;;;;4988742;28;20267;-72
2021/12/11 04:02:12;;;;;;;;;;;2.50;99.90;;;;;;4989619;28;20105;-72
2021/12/11 04:04:41;;;;;;;;;;;2.50;99.90;;;;;;4989854;28;20076;-72
2021/12/11 04:07:09;;;;;;;;;;;2.50;99.90;;;;;;4989905;28;20082;-72
2021/12/11 04:09:37;;;;;;;;;;;2.50;99.90;;;;;;4988062;28;20069;-73
2021/12/11 04:12:06;;;;;;;;;;;2.50;99.90;;;;;;4989680;28;21119;-72
2021/12/11 04:14:34;;;;;;;;;;;2.50;99.90;;;;;;4989916;28;20090;-72
2021/12/11 04:17:04;;;;;;;;;;;2.50;99.90;;;;;;4989130;28;20068;-72
2021/12/11 04:19:31;;;;;;;;;;;2.60;99.90;;;;;;4988737;28;20069;-72
2021/12/11 04:21:58;;;;;;;;;;;2.60;99.90;;;;;;4990049;28;20084;-72
2021/12/11 04:24:29;;;;;;;;;;;2.60;99.90;;;;;;4989029;28;20144;-72
2021/12/11 04:26:57;;;;;;;;;;;2.60;99.90;;;;;;4988869;28;20069;-72
2021/12/11 04:29:24;;;;;;;;;;;2.60;99.90;;;;;;4989240;28;20068;-72
2021/12/11 04:31:52;;;;;;;;;;;2.60;99.90;;;;;;4988747;28;20077;-72
2021/12/11 04:34:22;;;;;;;;;;;2.60;99.90;;;;;;4989335;28;20069;-72
2021/12/11 04:36:51;;;;;;;;;;;2.60;99.90;;;;;;4988795;28;20246;-74
2021/12/11 04:39:20;;;;;;;;;;;2.60;99.90;;;;;;4989106;28;20125;-73
2021/12/11 04:41:55;;;;;;;;;;;2.60;99.90;;;;;;4988761;28;20094;-72
2021/12/11 04:44:28;;;;;;;;;;;2.60;99.90;;;;;;4988551;28;21237;-73
2021/12/11 04:46:55;;;;;;;;;;;2.60;99.90;;;;;;4987284;28;20142;-73
2021/12/11 04:49:32;;;;;;;;;;;2.60;99.90;;;;;;4980227;28;20076;-72
2021/12/11 04:52:06;;;;;;;;;;;2.60;99.90;;;;;;4983066;28;20086;-73
2021/12/11 04:54:47;;;;;;;;;;;2.60;99.90;;;;;;4971978;28;20091;-73
2021/12/11 05:00:08;;;;;;;;;;;2.60;99.90;;;;;;4968753;28;20158;-73
2021/12/11 05:03:06;;;;;;;;;;;2.60;99.90;;;;;;4975456;28;20068;-72
2021/12/11 05:05:51;;;;;;;;;;;2.70;99.90;;;;;;4991460;28;20138;-73
2021/12/11 05:11:03;;;;;;;;;;;2.70;99.90;;;;;;4992175;28;20064;-73
2021/12/11 05:13:32;;;;;;;;;;;2.70;99.90;;;;;;4988132;28;20067;-72
2021/12/11 05:16:00;;;;;;;;;;;2.70;99.90;;;;;;4988341;28;20068;-73
2021/12/11 05:18:30;;;;;;;;;;;2.70;99.90;;;;;;4988165;28;20116;-72
2021/12/11 05:20:59;;;;;;;;;;;2.70;99.90;;;;;;4988445;28;20068;-73
2021/12/11 05:23:27;;;;;;;;;;;2.70;99.90;;;;;;4988564;28;20060;-73
2021/12/11 05:25:54;;;;;;;;;;;2.70;99.90;;;;;;4987958;28;20074;-73
2021/12/11 05:28:22;;;;;;;;;;;2.70;99.90;;;;;;4988248;28;20084;-73
2021/12/11 05:30:51;;;;;;;;;;;2.70;99.90;;;;;;4988657;28;20076;-70
2021/12/11 05:33:19;;;;;;;;;;;2.70;99.90;;;;;;4988140;28;21240;-71
2021/12/11 05:35:46;;;;;;;;;;;2.70;99.90;;;;;;4988138;28;20077;-70
2021/12/11 05:38:17;;;;;;;;;;;2.70;99.90;;;;;;4986084;28;20182;-70
2021/12/11 05:40:45;;;;;;;;;;;2.70;99.90;;;;;;4973360;28;20124;-71
2021/12/11 05:43:13;;;;;;;;;;;2.70;99.90;;;;;;4969637;28;20162;-71
2021/12/11 05:45:40;;;;;;;;;;;2.70;99.90;;;;;;4967802;28;20105;-72
2021/12/11 05:48:08;;;;;;;;;;;2.70;99.90;;;;;;4968416;28;20059;-69
2021/12/11 05:50:37;;;;;;;;;;;2.70;99.90;;;;;;4969707;28;21149;-71
2021/12/11 05:53:05;;;;;;;;;;;2.70;99.90;;;;;;4970355;28;20089;-71
2021/12/11 05:55:34;;;;;;;;;;;2.70;99.90;;;;;;4970317;28;20076;-71
2021/12/11 05:58:09;;;;;;;;;;;2.70;99.90;;;;;;4970664;28;21150;-71
2021/12/11 06:00:39;;;;;;;;;;;2.70;99.90;;;;;;4973669;28;21128;-71
2021/12/11 06:03:07;;;;;;;;;;;2.70;99.90;;;;;;4964820;28;21143;-72
2021/12/11 06:05:35;;;;;;;;;;;2.70;99.90;;;;;;4974552;28;20088;-74
2021/12/11 06:08:03;;;;;;;;;;;2.70;99.90;;;;;;4983506;28;20170;-74
2021/12/11 06:10:30;;;;;;;;;;;2.60;99.90;;;;;;4979982;28;21333;-71
2021/12/11 06:13:00;;;;;;;;;;;2.60;99.90;;;;;;4980048;28;20069;-81
2021/12/11 06:15:27;;;;;;;;;;;2.60;99.90;;;;;;4980314;28;20086;-73
2021/12/11 06:17:55;;;;;;;;;;;2.60;99.90;;;;;;4973211;28;20060;-72
2021/12/11 06:20:24;;;;;;;;;;;2.60;99.90;;;;;;4972944;28;20078;-72
2021/12/11 06:22:51;;;;;;;;;;;2.60;99.90;;;;;;4989878;28;20084;-72
2021/12/11 06:25:19;;;;;;;;;;;2.60;99.90;;;;;;4990459;28;20162;-72
2021/12/11 06:27:47;;;;;;;;;;;2.70;99.90;;;;;;4970751;28;20080;-72
2021/12/11 06:30:17;;;;;;;;;;;2.70;99.90;;;;;;4974679;28;20110;-71
2021/12/11 06:32:44;;;;;;;;;;;2.70;99.90;;;;;;4984537;28;20116;-71
2021/12/11 06:35:14;;;;;;;;;;;2.70;99.90;;;;;;4992775;28;20092;-72
2021/12/11 06:37:42;;;;;;;;;;;2.80;99.90;;;;;;4984624;28;20086;-72
2021/12/11 06:40:09;;;;;;;;;;;2.80;99.90;;;;;;4992727;28;20167;-71
2021/12/11 06:42:37;;;;;;;;;;;2.80;99.90;;;;;;4992731;28;20171;-72
2021/12/11 06:45:04;;;;;;;;;;;2.80;99.90;;;;;;4992878;28;20116;-72
2021/12/11 06:47:33;;;;;;;;;;;2.90;99.90;;;;;;4992481;28;21476;-72
2021/12/11 06:50:00;;;;;;;;;;;2.90;99.90;;;;;;4993106;28;20235;-72
2021/12/11 06:52:27;;;;;;;;;;;2.90;99.90;;;;;;4992981;28;20140;-72
2021/12/11 06:54:55;;;;;;;;;;;2.90;99.90;;;;;;4992939;28;20068;-71
2021/12/11 06:57:22;;;;;;;;;;;2.90;99.90;;;;;;4992728;28;20162;-72
2021/12/11 06:59:49;;;;;;;;;;;2.90;99.90;;;;;;4991635;28;20107;-72
2021/12/11 07:02:17;;;;;;;;;;;2.90;99.90;;;;;;4981585;28;20187;-72
2021/12/11 07:04:46;;;;;;;;;;;2.90;99.90;;;;;;4984684;28;21195;-72
2021/12/11 07:07:20;;;;;;;;;;;2.90;99.90;;;;;;4992526;28;20068;-72
2021/12/11 07:09:47;;;;;;;;;;;3.00;99.90;;;;;;4990383;28;20067;-72
2021/12/11 07:12:14;;;;;;;;;;;2.90;99.90;;;;;;4973451;28;20093;-72
2021/12/11 07:14:41;;;;;;;;;;;3.00;99.90;;;;;;4970120;28;20105;-72
2021/12/11 07:17:09;;;;;;;;;;;3.00;99.90;;;;;;4970462;28;20084;-72
2021/12/11 07:19:36;;;;;;;;;;;3.00;99.90;;;;;;4969663;28;21162;-74
2021/12/11 07:22:05;;;;;;;;;;;3.00;99.90;;;;;;4970589;28;20083;-72
2021/12/11 07:24:33;;;;;;;;;;;3.00;99.90;;;;;;4969449;28;20292;-72
2021/12/11 07:27:02;;;;;;;;;;;3.00;99.90;;;;;;4969931;28;20069;-72
2021/12/11 07:29:30;;;;;;;;;;;3.00;99.90;;;;;;4969672;28;20068;-71
2021/12/11 07:31:58;;;;;;;;;;;3.00;99.90;;;;;;4970214;28;20072;-72
2021/12/11 07:34:25;;;;;;;;;;;3.00;99.90;;;;;;4969854;28;21176;-72
2021/12/11 07:36:52;;;;;;;;;;;3.10;99.90;;;;;;4969244;28;20100;-72
2021/12/11 07:39:22;;;;;;;;;;;3.10;99.90;;;;;;4969379;28;20067;-72
2021/12/11 07:41:50;;;;;;;;;;;3.10;99.90;;;;;;4969843;28;20076;-73
2021/12/11 07:44:17;;;;;;;;;;;3.10;99.90;;;;;;4968724;28;20105;-72
2021/12/11 07:46:45;;;;;;;;;;;3.10;99.90;;;;;;4971681;28;20250;-73
2021/12/11 07:49:12;;;;;;;;;;;3.20;99.90;;;;;;4974463;28;20083;-73
2021/12/11 07:51:40;;;;;;;;;;;3.20;99.90;;;;;;4984371;28;20077;-72
2021/12/11 07:54:08;;;;;;;;;;;3.20;99.90;;;;;;4988945;28;20060;-71
2021/12/11 07:56:37;;;;;;;;;;;3.20;99.90;;;;;;4989259;28;20060;-72
2021/12/11 07:59:06;;;;;;;;;;;3.20;99.90;;;;;;4982588;28;20116;-72
2021/12/11 08:01:34;;;;;;;;;;;3.20;99.90;;;;;;4974829;28;21037;-72
2021/12/11 08:04:01;;;;;;;;;;;3.20;99.90;;;;;;4973088;28;20076;-71
2021/12/11 08:06:28;;;;;;;;;;;3.20;99.90;;;;;;4968657;28;21149;-70
2021/12/11 08:08:56;;;;;;;;;;;3.20;99.90;;;;;;4969182;28;20162;-74
2021/12/11 08:11:25;;;;;;;;;;;3.20;99.90;;;;;;4968257;28;21035;-73
2021/12/11 08:13:54;;;;;;;;;;;3.20;99.90;;;;;;4969104;28;20072;-72
2021/12/11 08:16:26;;;;;;;;;;;3.20;99.90;;;;;;4968847;28;20060;-72
2021/12/11 08:18:53;;;;;;;;;;;3.20;99.90;;;;;;4968435;28;20141;-72
2021/12/11 08:21:21;;;;;;;;;;;3.30;99.90;;;;;;4967569;28;20068;-71
2021/12/11 08:23:54;;;;;;;;;;;3.30;99.90;;;;;;4969286;28;20061;-72
2021/12/11 08:26:21;;;;;;;;;;;3.30;99.90;;;;;;4985036;28;21068;-72
2021/12/11 08:28:49;;;;;;;;;;;3.40;99.90;;;;;;4983976;28;20069;-71
2021/12/11 08:31:18;;;;;;;;;;;3.30;99.90;;;;;;4968839;28;21214;-72
2021/12/11 08:33:45;;;;;;;;;;;3.40;99.90;;;;;;4984170;28;20068;-73
2021/12/11 08:36:13;;;;;;;;;;;3.40;99.90;;;;;;4970418;28;20074;-71
2021/12/11 08:38:41;;;;;;;;;;;3.40;99.90;;;;;;4979116;28;20170;-69
2021/12/11 08:41:09;;;;;;;;;;;3.40;99.90;;;;;;4987745;28;20077;-74
2021/12/11 08:43:37;;;;;;;;;;;3.40;99.90;;;;;;4987421;28;20068;-72
2021/12/11 08:46:10;;;;;;;;;;;3.50;99.90;;;;;;4975308;28;20075;-72
2021/12/11 08:48:39;;;;;;;;;;;3.50;99.90;;;;;;4972865;28;20205;-72
2021/12/11 08:51:08;;;;;;;;;;;3.60;99.90;;;;;;4967696;28;20109;-71
2021/12/11 08:53:36;;;;;;;;;;;3.60;99.90;;;;;;4968162;28;20077;-73
2021/12/11 08:56:04;;;;;;;;;;;3.60;99.90;;;;;;4968468;28;20069;-71
2021/12/11 08:58:32;;;;;;;;;;;3.60;99.90;;;;;;4967571;28;20096;-70
2021/12/11 09:01:00;;;;;;;;;;;3.70;99.90;;;;;;4968521;28;20077;-72
2021/12/11 09:03:29;;;;;;;;;;;3.70;99.90;;;;;;4967725;28;20118;-73
2021/12/11 09:06:00;;;;;;;;;;;3.80;99.90;;;;;;4974110;28;20105;-70
2021/12/11 09:08:29;;;;;;;;;;;3.80;99.90;;;;;;4971345;28;20158;-71
2021/12/11 09:10:59;;;;;;;;;;;3.80;99.90;;;;;;4966214;28;20104;-72
2021/12/11 09:13:28;;;;;;;;;;;3.90;99.90;;;;;;4977405;28;20178;-72
2021/12/11 09:15:58;;;;;;;;;;;3.90;99.90;;;;;;4987239;28;20134;-75
2021/12/11 09:18:27;;;;;;;;;;;4.00;99.90;;;;;;4986682;28;20189;-72
2021/12/11 09:20:56;;;;;;;;;;;4.00;99.90;;;;;;4976671;28;20307;-70
2021/12/11 09:23:27;;;;;;;;;;;4.10;99.90;;;;;;4971453;28;20118;-71
2021/12/11 09:25:57;;;;;;;;;;;4.30;99.90;;;;;;4970989;28;20060;-70
2021/12/11 09:28:29;;;;;;;;;;;4.40;99.90;;;;;;4969212;28;20207;-72
2021/12/11 09:30:59;;;;;;;;;;;4.40;99.90;;;;;;4985568;28;20309;-71
2021/12/11 09:33:29;;;;;;;;;;;4.50;99.90;;;;;;4969652;28;20102;-69
2021/12/11 09:35:57;;;;;;;;;;;4.50;99.90;;;;;;4973659;28;21159;-71
2021/12/11 09:38:29;;;;;;;;;;;4.60;99.90;;;;;;4976695;28;20077;-72
2021/12/11 09:40:56;;;;;;;;;;;4.70;99.90;;;;;;4975592;28;21293;-72
2021/12/11 09:43:40;;;;;;;;;;;4.80;99.90;;;;;;4967757;28;20076;-72
2021/12/11 09:46:11;;;;;;;;;;;4.80;99.90;;;;;;4967566;28;20150;-72
2021/12/11 09:48:39;;;;;;;;;;;4.80;99.90;;;;;;4966526;28;20271;-73
2021/12/11 09:51:12;;;;;;;;;;;4.80;99.90;;;;;;4967199;28;20084;-73
2021/12/11 09:53:41;;;;;;;;;;;4.80;99.90;;;;;;4968039;28;20069;-73
2021/12/11 09:56:10;;;;;;;;;;;4.80;99.90;;;;;;4968573;28;21197;-72
2021/12/11 09:58:39;;;;;;;;;;;4.90;99.90;;;;;;4975877;28;20078;-72
2021/12/11 10:01:08;;;;;;;;;;;4.90;99.90;;;;;;4968115;28;20171;-72
2021/12/11 10:03:40;;;;;;;;;;;5.00;99.90;;;;;;4998919;23;21040;-71
2021/12/11 10:06:13;;;;;;;;;;;5.10;99.90;;;;;;5016384;28;21078;-71
2021/12/11 10:08:44;;;;;;;;;;;5.10;99.90;;;;;;4994916;28;21043;-71
2021/12/11 10:11:12;;;;;;;;;;;5.20;99.90;;;;;;4996410;28;20186;-70
2021/12/11 10:13:41;;;;;;;;;;;5.30;99.90;;;;;;5008327;28;20092;-71
2021/12/11 10:16:09;;;;;;;;;;;5.40;99.90;;;;;;5021091;28;20084;-71
2021/12/11 10:18:37;;;;;;;;;;;5.40;99.90;;;;;;5003208;28;20073;-71
2021/12/11 10:21:07;;;;;;;;;;;5.60;99.90;;;;;;4998939;28;20052;-71
2021/12/11 10:23:35;;;;;;;;;;;5.70;99.90;;;;;;5040179;28;20092;-70
2021/12/11 10:26:09;;;;;;;;;;;5.70;99.90;;;;;;5039473;28;20067;-71
2021/12/11 10:28:37;;;;;;;;;;;5.80;99.90;;;;;;5039563;28;20083;-72
2021/12/11 10:31:06;;;;;;;;;;;5.80;99.90;;;;;;5028435;28;20084;-70
2021/12/11 10:33:33;;;;;;;;;;;5.90;99.90;;;;;;4998254;28;20084;-71
2021/12/11 10:36:05;;;;;;;;;;;5.90;99.90;;;;;;5039489;28;21167;-71
2021/12/11 10:38:32;;;;;;;;;;;5.90;99.90;;;;;;5039571;28;20060;-71
2021/12/11 10:41:00;;;;;;;;;;;6.00;99.90;;;;;;5039689;28;20060;-71
2021/12/11 10:43:29;;;;;;;;;;;6.00;99.90;;;;;;5006362;28;20157;-71
2021/12/11 10:45:57;;;;;;;;;;;6.10;99.90;;;;;;5042447;28;20216;-71
2021/12/11 10:48:27;;;;;;;;;;;6.10;99.90;;;;;;5039759;28;20075;-71
2021/12/11 10:50:56;;;;;;;;;;;6.10;99.90;;;;;;5017750;28;20060;-71
2021/12/11 10:53:26;;;;;;;;;;;6.30;99.90;;;;;;5025701;28;20051;-71
2021/12/11 10:55:54;;;;;;;;;;;6.30;99.90;;;;;;5026533;28;21112;-71
2021/12/11 10:58:22;;;;;;;;;;;6.30;99.90;;;;;;5041364;28;20079;-71
2021/12/11 11:00:51;;;;;;;;;;;6.30;99.90;;;;;;5031880;28;21140;-72
2021/12/11 11:03:18;;;;;;;;;;;7.40;99.90;;;;;;5030779;28;20105;-71
2021/12/11 11:05:46;;;;;;;;;;;7.10;99.90;;;;;;5042684;28;20132;-71
2021/12/11 11:08:13;;;;;;;;;;;7.00;99.90;;;;;;5041775;28;20065;-71
2021/12/11 11:10:44;;;;;;;;;;;7.10;99.90;;;;;;5041039;28;20192;-71
2021/12/11 11:13:12;;;;;;;;;;;7.20;99.90;;;;;;5026152;28;20214;-71
2021/12/11 11:15:40;;;;;;;;;;;7.30;99.90;;;;;;5025777;28;20074;-72
2021/12/11 11:18:09;;;;;;;;;;;7.20;99.90;;;;;;5024082;28;20076;-71
2021/12/11 11:20:39;;;;;;;;;;;7.10;99.90;;;;;;5022592;28;20077;-71
2021/12/11 11:23:06;;;;;;;;;;;7.10;99.90;;;;;;5022803;28;20186;-70
2021/12/11 11:25:36;;;;;;;;;;;7.10;99.90;;;;;;5042777;28;20072;-72
2021/12/11 11:28:07;;;;;;;;;;;6.90;99.90;;;;;;5038991;28;20077;-72
2021/12/11 11:30:37;;;;;;;;;;;6.70;99.90;;;;;;5013803;28;20095;-72
2021/12/11 11:33:05;;;;;;;;;;;6.70;99.90;;;;;;5005648;28;20283;-72
2021/12/11 11:35:33;;;;;;;;;;;6.80;99.90;;;;;;5004897;28;20245;-72
2021/12/11 11:38:02;;;;;;;;;;;6.60;99.90;;;;;;5006085;28;20065;-71
2021/12/11 11:40:31;;;;;;;;;;;6.50;99.90;;;;;;5006410;28;20060;-72
2021/12/11 11:42:58;;;;;;;;;;;6.40;99.90;;;;;;5006159;28;20169;-71
2021/12/11 11:45:29;;;;;;;;;;;6.80;99.90;;;;;;5005074;28;20172;-71
2021/12/11 11:47:57;;;;;;;;;;;6.90;99.90;;;;;;5005125;28;21052;-71
2021/12/11 11:50:25;;;;;;;;;;;6.80;99.90;;;;;;5004662;28;20061;-71
2021/12/11 11:52:53;;;;;;;;;;;6.60;99.90;;;;;;5006440;28;20061;-71
2021/12/11 11:55:23;;;;;;;;;;;6.40;99.90;;;;;;5004603;28;20060;-71
2021/12/11 11:57:52;;;;;;;;;;;6.30;99.90;;;;;;5004635;28;20052;-71
2021/12/11 12:00:21;;;;;;;;;;;6.30;99.90;;;;;;5006467;28;20060;-72
2021/12/11 12:02:50;;;;;;;;;;;6.20;99.90;;;;;;5005215;28;21036;-71
2021/12/11 12:05:17;;;;;;;;;;;6.20;99.90;;;;;;5005329;28;21095;-71
2021/12/11 12:07:46;;;;;;;;;;;6.10;99.90;;;;;;5004787;28;20068;-70
2021/12/11 12:10:14;;;;;;;;;;;6.10;99.90;;;;;;5005149;28;20058;-71
2021/12/11 12:12:42;;;;;;;;;;;6.10;99.90;;;;;;5024990;28;20124;-72
2021/12/11 12:15:10;;;;;;;;;;;6.00;99.90;;;;;;5017143;28;20169;-71
2021/12/11 12:17:38;;;;;;;;;;;6.10;99.90;;;;;;5019145;28;21190;-71
2021/12/11 12:20:09;;;;;;;;;;;6.10;99.90;;;;;;5042080;28;20086;-71
2021/12/11 12:22:36;;;;;;;;;;;6.00;99.90;;;;;;5041989;28;21119;-71
2021/12/11 12:25:04;;;;;;;;;;;6.10;99.90;;;;;;5041885;28;20067;-71
2021/12/11 12:27:33;;;;;;;;;;;6.10;99.90;;;;;;5039291;28;20152;-71
2021/12/11 12:30:01;;;;;;;;;;;6.10;99.90;;;;;;5031713;28;20067;-70
2021/12/11 12:32:30;;;;;;;;;;;6.10;99.90;;;;;;5018319;28;20061;-70
2021/12/11 12:34:58;;;;;;;;;;;6.20;99.90;;;;;;5024968;28;20082;-71
2021/12/11 12:37:27;;;;;;;;;;;6.20;99.90;;;;;;5024725;28;20132;-72
2021/12/11 12:39:56;;;;;;;;;;;6.20;99.90;;;;;;5008009;28;20068;-71
2021/12/11 12:42:28;;;;;;;;;;;6.20;99.90;;;;;;5024300;28;20060;-71
2021/12/11 12:44:57;;;;;;;;;;;6.20;99.90;;;;;;5024680;28;20178;-72
2021/12/11 12:47:25;;;;;;;;;;;6.20;99.90;;;;;;5024719;28;20067;-72
2021/12/11 12:49:54;;;;;;;;;;;6.30;99.90;;;;;;5023742;28;20068;-72
2021/12/11 12:52:24;;;;;;;;;;;6.30;99.90;;;;;;5020479;28;20101;-76
2021/12/11 12:54:53;;;;;;;;;;;6.40;99.90;;;;;;5019103;28;20100;-72
2021/12/11 12:57:22;;;;;;;;;;;6.40;99.90;;;;;;5023927;28;20084;-72
2021/12/11 12:59:52;;;;;;;;;;;6.50;99.90;;;;;;5020014;28;20058;-72
2021/12/11 13:02:36;;;;;;;;;;;6.50;99.90;;;;;;5040879;28;20060;-73
2021/12/11 13:05:06;;;;;;;;;;;6.40;99.90;;;;;;5007092;28;20067;-71
2021/12/11 13:07:34;;;;;;;;;;;6.40;99.90;;;;;;5040797;28;20060;-73
2021/12/11 13:10:08;;;;;;;;;;;6.40;99.90;;;;;;5041318;28;20059;-72
2021/12/11 13:12:36;;;;;;;;;;;6.40;99.90;;;;;;5004036;28;21150;-72
2021/12/11 13:15:06;;;;;;;;;;;6.40;99.90;;;;;;4986872;28;20059;-72
2021/12/11 13:17:35;;;;;;;;;;;6.30;99.90;;;;;;5003219;28;21325;-72
2021/12/11 13:20:08;;;;;;;;;;;6.30;99.90;;;;;;5003729;28;20076;-73
2021/12/11 13:22:36;;;;;;;;;;;6.30;99.90;;;;;;5004279;28;20060;-72
2021/12/11 13:25:08;;;;;;;;;;;6.20;99.90;;;;;;5004014;28;20170;-72
2021/12/11 13:27:36;;;;;;;;;;;6.20;99.90;;;;;;4987399;28;20309;-72
2021/12/11 13:30:09;;;;;;;;;;;6.20;99.90;;;;;;5003583;28;21039;-72
2021/12/11 13:32:36;;;;;;;;;;;6.20;99.90;;;;;;5004318;28;20057;-71
2021/12/11 13:35:06;;;;;;;;;;;6.30;99.90;;;;;;5003667;28;20215;-72
2021/12/11 13:37:33;;;;;;;;;;;6.30;99.90;;;;;;4986330;28;20060;-71
2021/12/11 13:40:01;;;;;;;;;;;6.30;99.90;;;;;;5003506;28;20051;-72
2021/12/11 13:42:31;;;;;;;;;;;6.30;99.90;;;;;;5003715;28;20075;-72
2021/12/11 13:45:00;;;;;;;;;;;6.30;99.90;;;;;;5003566;28;20084;-71
2021/12/11 13:47:29;;;;;;;;;;;6.40;99.90;;;;;;4987179;28;20051;-72
2021/12/11 13:49:59;;;;;;;;;;;6.40;99.90;;;;;;5003790;28;21114;-72
2021/12/11 13:52:26;;;;;;;;;;;6.40;99.90;;;;;;5003955;28;20060;-72
2021/12/11 13:54:54;;;;;;;;;;;6.50;99.90;;;;;;4986998;28;20067;-73
2021/12/11 13:57:25;;;;;;;;;;;6.50;99.90;;;;;;5003319;28;20091;-72
2021/12/11 13:59:54;;;;;;;;;;;6.50;99.90;;;;;;5003537;28;21340;-72
2021/12/11 14:02:22;;;;;;;;;;;6.60;99.90;;;;;;5003483;28;20153;-71
2021/12/11 14:04:49;;;;;;;;;;;6.60;99.90;;;;;;4985934;28;21283;-72
2021/12/11 14:07:20;;;;;;;;;;;6.70;99.90;;;;;;5003208;28;21196;-73
2021/12/11 14:09:49;;;;;;;;;;;6.70;99.90;;;;;;5003151;28;20173;-69
2021/12/11 14:12:16;;;;;;;;;;;6.60;99.90;;;;;;5003286;28;20050;-71
2021/12/11 14:14:43;;;;;;;;;;;6.50;99.90;;;;;;5003022;28;21120;-71
2021/12/11 14:17:12;;;;;;;;;;;6.30;99.90;;;;;;5003507;28;21085;-69
2021/12/11 14:19:42;;;;;;;;;;;6.30;99.90;;;;;;4988817;28;21067;-69
2021/12/11 14:22:10;;;;;;;;;;;6.20;99.90;;;;;;5007338;28;20051;-72
2021/12/11 14:24:42;;;;;;;;;;;6.10;99.90;;;;;;5007549;28;20218;-71
2021/12/11 14:27:14;;;;;;;;;;;6.10;99.90;;;;;;5007899;28;21235;-72
2021/12/11 14:29:45;;;;;;;;;;;6.00;99.90;;;;;;5007619;28;20058;-72
2021/12/11 14:32:15;;;;;;;;;;;6.00;99.90;;;;;;5007892;28;20178;-70
2021/12/11 14:34:43;;;;;;;;;;;6.00;99.90;;;;;;5006398;28;20075;-71
2021/12/11 14:37:10;;;;;;;;;;;6.00;99.90;;;;;;5007415;28;20162;-71
2021/12/11 14:39:37;;;;;;;;;;;6.10;99.90;;;;;;5007501;28;20068;-71
2021/12/11 14:42:05;;;;;;;;;;;6.20;99.90;;;;;;5008423;28;20051;-71
2021/12/11 14:44:33;;;;;;;;;;;6.20;99.90;;;;;;5006938;28;20060;-71
2021/12/11 14:47:03;;;;;;;;;;;6.30;99.90;;;;;;5006801;28;20058;-72